Terminal Aerodrome Forecast
Issued by NWS

Home | Current Version | Previous Version | Text Only | Print | Product List | Glossary On
Versions: 1 2 3 4 5 6 7 8 9 10 11 12 13 14 15 16 17 18 19 20 21 22 23 24 25
000
FTUS43 KDLH 280533
TAFHIB
TAF
KHIB 280533Z 2806/0106 13007KT P6SM VCSH BKN050 OVC070
     FM280700 00000KT 4SM -SN OVC035
     FM280900 13004KT 2SM -SN OVC012
     FM281400 VRB03KT 5SM -SN OVC015
     FM281600 01009KT P6SM VCSH OVC012
     FM281900 02010KT P6SM BKN015
     FM010300 03008KT P6SM BKN035=

USA.gov is the U.S. government's official web portal to all federal, state and local government web resources and services.